createdAt,value
2018-12-16T00:05:02.508Z,73.46
2018-12-16T00:10:05.687Z,72.56
2018-12-16T00:15:08.301Z,73.01
2018-12-16T00:20:11.096Z,71.35
2018-12-16T00:25:14.291Z,71.51
2018-12-16T00:30:16.906Z,71.70
2018-12-16T00:35:19.500Z,70.95
2018-12-16T00:40:22.171Z,70.29
2018-12-16T00:45:24.976Z,71.35
2018-12-16T00:50:28.255Z,71.13
2018-12-16T00:55:30.833Z,69.97
2018-12-16T01:00:33.785Z,69.40
2018-12-16T01:05:37.239Z,69.23
2018-12-16T01:10:40.417Z,69.92
2018-12-16T01:15:43.560Z,69.84
2018-12-16T01:20:46.307Z,69.11
2018-12-16T01:25:49.115Z,68.24
2018-12-16T01:30:52.285Z,68.75
2018-12-16T01:35:55.028Z,68.41
2018-12-16T01:40:57.963Z,68.68
2018-12-16T01:46:00.626Z,68.65
2018-12-16T01:51:03.173Z,68.26
2018-12-16T01:56:05.862Z,69.66
2018-12-16T02:01:08.498Z,69.11
2018-12-16T02:06:11.177Z,69.12
2018-12-16T02:11:14.009Z,68.77
2018-12-16T02:16:17.227Z,69.38
2018-12-16T02:21:19.918Z,70.09
2018-12-16T02:26:22.589Z,70.27
2018-12-16T02:31:25.426Z,69.38
2018-12-16T02:36:28.031Z,70.57
2018-12-16T02:41:30.970Z,70.40
2018-12-16T02:46:33.710Z,69.86
2018-12-16T02:51:36.507Z,69.39
2018-12-16T02:56:39.148Z,71.35
2018-12-16T03:01:43.690Z,70.51
2018-12-16T03:06:46.255Z,70.52
2018-12-16T03:11:48.902Z,71.38
2018-12-16T03:16:51.520Z,71.33
2018-12-16T03:21:54.352Z,71.39
2018-12-16T03:26:56.951Z,71.61
2018-12-16T03:31:59.521Z,71.89
2018-12-16T03:37:02.151Z,71.97
2018-12-16T03:42:04.704Z,72.35
2018-12-16T03:47:07.413Z,72.54
2018-12-16T03:52:10.108Z,73.04
2018-12-16T03:57:12.797Z,73.68
2018-12-16T04:02:15.637Z,73.54
2018-12-16T04:07:18.295Z,72.72
2018-12-16T04:12:21.006Z,72.76
2018-12-16T04:17:23.820Z,73.03
2018-12-16T04:22:26.606Z,73.43
2018-12-16T04:27:29.419Z,74.23
2018-12-16T04:32:32.257Z,73.87
2018-12-16T04:37:35.007Z,73.78
2018-12-16T04:42:37.705Z,73.88
2018-12-16T04:47:40.509Z,74.28
2018-12-16T04:52:43.283Z,74.13
2018-12-16T04:57:46.167Z,74.14
2018-12-16T05:02:49.630Z,74.15
2018-12-16T05:07:52.382Z,74.66
2018-12-16T05:12:55.062Z,75.13
2018-12-16T05:17:57.917Z,75.33
2018-12-16T05:23:01.204Z,74.34
2018-12-16T05:28:03.986Z,73.74
2018-12-16T05:33:06.932Z,72.17
2018-12-16T05:38:09.621Z,72.45
2018-12-16T05:43:12.280Z,72.26
2018-12-16T05:48:15.148Z,72.52
2018-12-16T05:53:17.708Z,71.50
2018-12-16T05:58:21.092Z,71.25
2018-12-16T06:03:23.770Z,71.68
2018-12-16T06:08:26.334Z,70.33
2018-12-16T06:13:29.092Z,70.48
2018-12-16T06:18:31.829Z,70.08
2018-12-16T06:23:34.532Z,69.41
2018-12-16T06:28:37.137Z,67.90
2018-12-16T06:33:39.824Z,67.06
2018-12-16T06:38:43.226Z,67.60
2018-12-16T06:43:45.965Z,67.56
2018-12-16T06:48:48.782Z,66.43
2018-12-16T06:53:51.559Z,66.28
2018-12-16T06:58:54.322Z,64.66
2018-12-16T07:03:57.011Z,63.57
2018-12-16T07:08:59.600Z,63.09
2018-12-16T07:14:02.199Z,63.28
2018-12-16T07:19:05.011Z,63.33
2018-12-16T07:24:09.418Z,63.21
2018-12-16T07:29:12.876Z,61.27
2018-12-16T07:34:15.518Z,61.55
2018-12-16T07:39:18.325Z,60.56
2018-12-16T07:44:20.908Z,60.26
2018-12-16T07:49:23.755Z,60.38
2018-12-16T07:54:26.405Z,59.91
2018-12-16T07:59:29.021Z,60.46
2018-12-16T08:04:31.864Z,60.68
2018-12-16T08:09:34.545Z,61.43
2018-12-16T08:14:37.448Z,60.79
2018-12-16T08:19:40.453Z,60.60
2018-12-16T08:24:43.138Z,60.64
2018-12-16T08:29:46.582Z,61.28
2018-12-16T08:34:49.570Z,60.90
2018-12-16T08:39:52.153Z,61.02
2018-12-16T08:44:55.316Z,60.98
2018-12-16T08:49:58.383Z,61.46
2018-12-16T08:55:01.071Z,65.37
2018-12-16T09:00:04.258Z,61.01
2018-12-16T09:05:07.114Z,61.86
2018-12-16T09:10:10.281Z,60.85
2018-12-16T09:15:12.890Z,61.49
2018-12-16T09:20:15.651Z,61.39
2018-12-16T09:25:18.824Z,61.54
2018-12-16T09:30:21.509Z,61.32
2018-12-16T09:35:24.066Z,61.08
2018-12-16T09:40:26.648Z,60.52
2018-12-16T09:45:29.233Z,60.21
2018-12-16T09:50:31.834Z,61.15
2018-12-16T09:55:34.435Z,61.99
2018-12-16T10:00:37.820Z,60.12
2018-12-16T10:05:40.416Z,60.38
2018-12-16T10:10:43.150Z,61.45
2018-12-16T10:15:46.086Z,61.19
2018-12-16T10:20:48.671Z,61.25
2018-12-16T10:25:52.122Z,60.14
2018-12-16T10:30:54.732Z,60.29
2018-12-16T10:35:58.616Z,60.53
2018-12-16T10:41:01.221Z,60.32
2018-12-16T10:46:03.836Z,61.29
2018-12-16T10:51:06.777Z,62.57
2018-12-16T10:56:09.356Z,62.48
2018-12-16T11:01:29.471Z,61.22
2018-12-16T11:06:32.048Z,60.98
2018-12-16T11:11:34.651Z,61.25
2018-12-16T11:16:37.507Z,61.75
2018-12-16T11:21:40.104Z,61.93
2018-12-16T11:26:42.741Z,61.03
2018-12-16T11:31:45.351Z,60.81
2018-12-16T11:36:47.970Z,62.70
2018-12-16T11:41:50.597Z,62.63
2018-12-16T11:46:53.378Z,62.31
2018-12-16T11:51:56.781Z,63.27
2018-12-16T11:56:59.473Z,61.95
2018-12-16T12:02:02.449Z,62.52
2018-12-16T12:07:05.194Z,63.48
2018-12-16T12:12:07.994Z,63.70
2018-12-16T12:17:10.587Z,63.72
2018-12-16T12:22:13.155Z,63.26
2018-12-16T12:27:16.475Z,63.33
2018-12-16T12:32:19.137Z,62.35
2018-12-16T12:37:22.315Z,62.26
2018-12-16T12:42:25.715Z,62.40
2018-12-16T12:47:28.345Z,62.33
2018-12-16T12:52:30.899Z,63.37
2018-12-16T12:57:33.598Z,62.81
2018-12-16T13:02:36.143Z,62.50
2018-12-16T13:07:38.852Z,62.71
2018-12-16T13:12:41.417Z,63.23
2018-12-16T13:17:44.074Z,62.36
2018-12-16T13:22:46.890Z,63.83
2018-12-16T13:27:50.155Z,63.23
2018-12-16T13:32:52.724Z,62.61
2018-12-16T13:37:55.395Z,63.31
2018-12-16T13:42:58.194Z,63.04
2018-12-16T13:48:00.997Z,63.01
2018-12-16T13:53:03.683Z,63.08
2018-12-16T13:58:06.941Z,63.69
2018-12-16T14:03:09.606Z,63.08
2018-12-16T14:08:12.566Z,63.30
2018-12-16T14:13:15.189Z,63.63
2018-12-16T14:18:18.238Z,63.02
2018-12-16T14:23:20.791Z,63.44
2018-12-16T14:28:23.496Z,63.70
2018-12-16T14:33:26.418Z,64.15
2018-12-16T14:38:29.333Z,63.72
2018-12-16T14:43:32.012Z,67.02
2018-12-16T14:48:34.573Z,63.85
2018-12-16T14:53:37.221Z,64.08
2018-12-16T14:58:39.883Z,63.38
2018-12-16T15:03:43.189Z,63.96
2018-12-16T15:08:45.790Z,64.99
2018-12-16T15:13:48.469Z,64.62
2018-12-16T15:18:51.162Z,64.30
2018-12-16T15:23:53.950Z,63.89
2018-12-16T15:28:56.575Z,63.95
2018-12-16T15:33:59.964Z,66.03
2018-12-16T15:39:02.740Z,67.25
2018-12-16T15:44:05.424Z,67.85
2018-12-16T15:49:08.204Z,66.36
2018-12-16T15:54:10.846Z,66.66
2018-12-16T15:59:13.473Z,68.04
2018-12-16T16:04:16.388Z,67.08
2018-12-16T16:09:19.193Z,67.67
2018-12-16T16:14:21.809Z,67.09
2018-12-16T16:19:24.441Z,66.98
2018-12-16T16:24:27.788Z,67.63
2018-12-16T16:29:30.367Z,67.02
2018-12-16T16:34:33.143Z,67.99
2018-12-16T16:39:35.705Z,68.28
2018-12-16T16:44:38.387Z,68.27
2018-12-16T16:49:40.970Z,67.64
2018-12-16T16:54:43.577Z,68.20
2018-12-16T16:59:46.935Z,69.55
2018-12-16T17:04:50.422Z,68.53
2018-12-16T17:09:53.250Z,68.64
2018-12-16T17:14:56.472Z,67.94
2018-12-16T17:19:59.120Z,71.03
2018-12-16T17:25:02.304Z,69.19
2018-12-16T17:30:07.116Z,69.69
2018-12-16T17:35:09.870Z,69.42
2018-12-16T17:40:12.618Z,67.98
2018-12-16T17:45:15.944Z,68.83
2018-12-16T17:50:18.688Z,69.16
2018-12-16T17:55:21.241Z,70.44
2018-12-16T18:00:24.171Z,66.78
2018-12-16T18:05:26.783Z,66.82
2018-12-16T18:10:29.382Z,67.01
2018-12-16T18:15:32.052Z,67.33
2018-12-16T18:20:35.403Z,69.85
2018-12-16T18:25:38.173Z,70.54
2018-12-16T18:30:40.778Z,72.21
2018-12-16T18:35:44.203Z,73.87
2018-12-16T18:40:46.920Z,75.20
2018-12-16T18:45:49.530Z,75.18
2018-12-16T18:50:52.165Z,76.86
2018-12-16T18:55:55.047Z,76.20
2018-12-16T19:00:57.735Z,76.45
2018-12-16T19:06:00.468Z,77.75
2018-12-16T19:11:03.654Z,79.40
2018-12-16T19:16:06.375Z,79.09
2018-12-16T19:21:09.258Z,78.65
2018-12-16T19:26:12.586Z,76.60
2018-12-16T19:31:15.285Z,77.14
2018-12-16T19:36:17.885Z,76.95
2018-12-16T19:41:20.630Z,76.64
2018-12-16T19:46:23.491Z,77.64
2018-12-16T19:51:26.389Z,77.46
2018-12-16T19:56:28.976Z,75.39
2018-12-16T20:01:31.729Z,75.45
2018-12-16T20:06:40.211Z,75.42
2018-12-16T20:11:42.911Z,75.98
2018-12-16T20:16:45.841Z,77.23
2018-12-16T20:21:49.248Z,76.72
2018-12-16T20:26:52.443Z,76.15
2018-12-16T20:31:55.788Z,76.51
2018-12-16T20:36:58.405Z,75.54
2018-12-16T20:42:01.951Z,74.67
2018-12-16T20:47:04.592Z,75.08
2018-12-16T20:52:07.467Z,75.42
2018-12-16T20:57:10.335Z,75.34
2018-12-16T21:02:12.918Z,74.80
2018-12-16T21:07:16.032Z,75.41
2018-12-16T21:12:24.325Z,74.34
2018-12-16T21:17:32.386Z,75.06
2018-12-16T21:22:35.215Z,75.19
2018-12-16T21:27:37.788Z,74.15
2018-12-16T21:32:40.513Z,75.62
2018-12-16T21:37:43.057Z,75.31
2018-12-16T21:42:45.860Z,75.78
2018-12-16T21:47:48.603Z,76.72
2018-12-16T21:52:51.457Z,74.76
2018-12-16T21:57:54.307Z,77.51
2018-12-16T22:02:56.909Z,75.20
2018-12-16T22:08:00.215Z,74.65
2018-12-16T22:13:02.909Z,74.49
2018-12-16T22:18:05.526Z,75.93
2018-12-16T22:23:08.811Z,76.19
2018-12-16T22:28:11.525Z,75.92
2018-12-16T22:33:14.725Z,76.05
2018-12-16T22:38:17.416Z,76.02
2018-12-16T22:43:21.050Z,75.64
2018-12-16T22:48:23.612Z,75.09
2018-12-16T22:53:26.437Z,76.66
2018-12-16T22:58:29.236Z,76.31
2018-12-16T23:03:31.929Z,75.42
2018-12-16T23:08:34.582Z,75.25
2018-12-16T23:13:37.494Z,75.22
2018-12-16T23:18:40.947Z,74.45
2018-12-16T23:23:43.641Z,74.21
2018-12-16T23:28:46.447Z,75.86
2018-12-16T23:33:49.018Z,75.09
2018-12-16T23:38:51.944Z,76.88
2018-12-16T23:43:54.845Z,76.20
2018-12-16T23:48:57.549Z,75.23
2018-12-16T23:54:00.170Z,76.02
2018-12-16T23:59:02.822Z,75.98
